Dades meteomassalio
Diari Summary for Noviembre 26, 2017 Units:  English    Metric   Both
« Previous Day
Next Day »
Diari Semanal Mensual Anual Personalitzat
  Maxima: Minima: Mijana:
Temperatura: TemperatureC °F 1.1 °F 7.6 °F
Rosada: DewpointC °F -3.2 °F 0.8 °F
Humitat: Humidity % 47 % 62 %
Velocitat del vent: WindSpeedKMH mph 5.6 mph 24.7 mph
Racha vent: WindSpeedGustKMH mph - -
Vent:- - WNW
Pressio: PressurehPa in 1028.3 in -
Pluja: 0.0 in    
Historical Graphs
 
 
Tabular Data for Noviembre 26, 2017
Time Temperature Dew Point Pressure Wind Wind Speed Wind Gust Humidity Rainfall Rate (Hourly) solar Conditions
TemperatureC °F DewpointC °F PressurehPa in Calm     Humidity % HourlyPrecipMM in SolarRadiationWatts/m^2 W/m2 Conditions
00:02 7.8 °F 0.3 °F 1028.3 in NNW 42.6 mph 42.6 mph 59 % 0.0 in 0.0 W/m2 CLR
00:07 7.8 °F 0.3 °F 1028.3 in NW 31.5 mph 31.5 mph 59 % 0.0 in 0.0 W/m2 CLR
00:12 7.8 °F 0.3 °F 1028.3 in NW 33.3 mph 33.3 mph 59 % 0.0 in 0.0 W/m2 CLR
00:17 7.8 °F 0.0 °F 1028.3 in NW 38.9 mph 38.9 mph 58 % 0.0 in 0.0 W/m2 CLR
00:22 7.2 °F -0.5 °F 1028.3 in WNW 35.2 mph 35.2 mph 58 % 0.0 in 0.0 W/m2 CLR
00:27 7.2 °F -0.5 °F 1028.3 in NW 29.6 mph 29.6 mph 58 % 0.0 in 0.0 W/m2 CLR
00:32 7.2 °F -0.3 °F 1028.7 in NNW 31.5 mph 31.5 mph 59 % 0.0 in 0.0 W/m2 CLR
00:37 7.2 °F -0.3 °F 1028.7 in NNW 24.1 mph 24.1 mph 59 % 0.0 in 0.0 W/m2 CLR
00:42 7.2 °F -0.3 °F 1028.7 in NW 29.6 mph 29.6 mph 59 % 0.0 in 0.0 W/m2 CLR
00:47 7.2 °F -0.1 °F 1028.7 in NW 31.5 mph 31.5 mph 60 % 0.0 in 0.0 W/m2 CLR
00:52 7.2 °F -0.1 °F 1028.7 in NNW 16.7 mph 16.7 mph 60 % 0.0 in 0.0 W/m2 CLR
00:57 7.2 °F 0.2 °F 1028.7 in NW 20.4 mph 20.4 mph 61 % 0.0 in 0.0 W/m2 CLR
01:02 7.2 °F 0.2 °F 1029.0 in NNW 22.5 mph 22.5 mph 61 % 0.0 in 0.0 W/m2 CLR
01:07 6.7 °F -0.3 °F 1029.0 in NW 17.7 mph 17.7 mph 61 % 0.0 in 0.0 W/m2 CLR
01:12 6.7 °F -0.1 °F 1029.0 in WNW 16.7 mph 16.7 mph 62 % 0.0 in 0.0 W/m2 CLR
01:17 6.7 °F -0.1 °F 1029.0 in NW 29.6 mph 29.6 mph 62 % 0.0 in 0.0 W/m2 CLR
01:22 7.2 °F 0.4 °F 1029.0 in WNW 24.1 mph 24.1 mph 62 % 0.0 in 0.0 W/m2 CLR
01:27 6.7 °F -0.1 °F 1029.0 in WNW 22.2 mph 22.2 mph 62 % 0.0 in 0.0 W/m2 CLR
01:32 6.7 °F -0.1 °F 1029.0 in NW 31.5 mph 31.5 mph 62 % 0.0 in 0.0 W/m2 CLR
01:37 6.7 °F 0.1 °F 1029.0 in NW 22.2 mph 22.2 mph 63 % 0.0 in 0.0 W/m2 CLR
01:42 6.7 °F 0.1 °F 1029.0 in WNW 31.5 mph 31.5 mph 63 % 0.0 in 0.0 W/m2 CLR
01:47 6.7 °F 0.1 °F 1029.0 in NW 25.9 mph 25.9 mph 63 % 0.0 in 0.0 W/m2 CLR
01:52 6.7 °F 0.3 °F 1029.0 in NW 24.1 mph 24.1 mph 64 % 0.0 in 0.0 W/m2 CLR
02:02 6.7 °F 0.3 °F 1029.0 in WNW 24.1 mph 24.1 mph 64 % 0.0 in 0.0 W/m2 CLR
02:07 6.7 °F 0.3 °F 1029.3 in WNW 18.5 mph 18.5 mph 64 % 0.0 in 0.0 W/m2 CLR
02:12 6.7 °F 0.6 °F 1029.3 in WNW 22.2 mph 22.2 mph 65 % 0.0 in 0.0 W/m2 CLR
02:17 6.7 °F 0.6 °F 1029.3 in NW 22.2 mph 22.2 mph 65 % 0.0 in 0.0 W/m2 CLR
02:22 6.7 °F 0.6 °F 1029.3 in NW 31.5 mph 31.5 mph 65 % 0.0 in 0.0 W/m2 CLR
02:27 6.7 °F 0.6 °F 1029.3 in NW 24.1 mph 24.1 mph 65 % 0.0 in 0.0 W/m2 CLR
02:32 6.7 °F 0.6 °F 1029.3 in WNW 20.4 mph 20.4 mph 65 % 0.0 in 0.0 W/m2 CLR
02:37 6.7 °F 0.6 °F 1029.3 in WNW 18.5 mph 18.5 mph 65 % 0.0 in 0.0 W/m2 CLR
02:42 6.7 °F 0.8 °F 1029.3 in NW 27.8 mph 27.8 mph 66 % 0.0 in 0.0 W/m2 CLR
02:48 6.7 °F 0.8 °F 1029.7 in WNW 24.1 mph 24.1 mph 66 % 0.0 in 0.0 W/m2 CLR
02:53 6.7 °F 0.8 °F 1029.3 in NW 22.5 mph 22.5 mph 66 % 0.0 in 0.0 W/m2 CLR
02:58 6.7 °F 0.8 °F 1029.3 in WNW 27.8 mph 27.8 mph 66 % 0.0 in 0.0 W/m2 CLR
03:03 6.7 °F 0.8 °F 1029.3 in WNW 27.8 mph 27.8 mph 66 % 0.0 in 0.0 W/m2 CLR
03:08 6.1 °F 0.2 °F 1029.7 in NW 24.1 mph 24.1 mph 66 % 0.0 in 0.0 W/m2 CLR
03:13 6.1 °F 0.2 °F 1029.3 in WNW 18.5 mph 21.2 mph 66 % 0.0 in 0.0 W/m2 CLR
03:18 6.1 °F 0.4 °F 1029.3 in NW 35.2 mph 35.2 mph 67 % 0.0 in 0.0 W/m2 CLR
03:23 6.7 °F 0.8 °F 1029.3 in NW 32.2 mph 32.2 mph 66 % 0.0 in 0.0 W/m2 CLR
03:28 6.7 °F 0.8 °F 1029.3 in NW 27.8 mph 27.8 mph 66 % 0.0 in 0.0 W/m2 CLR
03:33 6.7 °F 0.9 °F 1029.3 in NW 33.8 mph 33.8 mph 67 % 0.0 in 0.0 W/m2 CLR
03:38 6.7 °F 0.8 °F 1029.3 in NW 29.6 mph 29.6 mph 66 % 0.0 in 0.0 W/m2 CLR
03:43 6.7 °F 0.8 °F 1029.3 in NW 33.3 mph 33.3 mph 66 % 0.0 in 0.0 W/m2 CLR
03:48 6.7 °F 0.8 °F 1029.3 in NW 33.3 mph 33.3 mph 66 % 0.0 in 0.0 W/m2 CLR
03:53 6.7 °F 0.8 °F 1029.3 in NW 31.5 mph 31.5 mph 66 % 0.0 in 0.0 W/m2 CLR
03:58 6.7 °F 0.8 °F 1029.3 in NW 31.5 mph 31.5 mph 66 % 0.0 in 0.0 W/m2 CLR
04:03 6.7 °F 0.9 °F 1029.3 in NW 31.5 mph 31.5 mph 67 % 0.0 in 0.0 W/m2 CLR
04:08 6.7 °F 0.8 °F 1029.3 in WNW 33.3 mph 33.3 mph 66 % 0.0 in 0.0 W/m2 CLR
04:13 6.7 °F 0.8 °F 1029.3 in NW 31.5 mph 31.5 mph 66 % 0.0 in 0.0 W/m2 CLR
04:18 6.7 °F 0.8 °F 1029.3 in WNW 31.5 mph 31.5 mph 66 % 0.0 in 0.0 W/m2 CLR
04:23 6.7 °F 0.8 °F 1029.3 in West 31.5 mph 31.5 mph 66 % 0.0 in 0.0 W/m2 CLR
04:28 6.7 °F 0.8 °F 1029.3 in WNW 24.1 mph 24.1 mph 66 % 0.0 in 0.0 W/m2 CLR
04:33 6.1 °F 0.2 °F 1029.3 in WNW 18.5 mph 18.5 mph 66 % 0.0 in 0.0 W/m2 CLR
04:38 6.1 °F 0.2 °F 1029.3 in NW 20.9 mph 20.9 mph 66 % 0.0 in 0.0 W/m2 CLR
04:43 6.1 °F 0.4 °F 1029.3 in NW 25.9 mph 25.9 mph 67 % 0.0 in 0.0 W/m2 CLR
04:48 6.1 °F 0.4 °F 1029.3 in NW 25.7 mph 25.7 mph 67 % 0.0 in 0.0 W/m2 CLR
04:53 6.1 °F 0.4 °F 1029.3 in NW 31.5 mph 31.5 mph 67 % 0.0 in 0.0 W/m2 CLR
04:58 6.1 °F 0.4 °F 1029.3 in NW 27.8 mph 27.8 mph 67 % 0.0 in 0.0 W/m2 CLR
05:03 6.1 °F 0.4 °F 1029.3 in WNW 31.5 mph 31.5 mph 67 % 0.0 in 0.0 W/m2 CLR
05:08 6.1 °F 0.4 °F 1029.7 in NW 31.5 mph 31.5 mph 67 % 0.0 in 0.0 W/m2 CLR
05:13 6.7 °F 0.9 °F 1029.7 in WNW 24.1 mph 24.1 mph 67 % 0.0 in 0.0 W/m2 CLR
05:18 6.1 °F 0.4 °F 1029.7 in NW 29.6 mph 29.6 mph 67 % 0.0 in 0.0 W/m2 CLR
05:28 6.7 °F 0.9 °F 1029.3 in NNW 31.5 mph 31.5 mph 67 % 0.0 in 0.0 W/m2 CLR
05:33 6.1 °F 0.4 °F 1029.3 in NW 16.7 mph 16.7 mph 67 % 0.0 in 0.0 W/m2 CLR
05:38 6.1 °F 0.4 °F 1029.7 in NW 27.8 mph 27.8 mph 67 % 0.0 in 0.0 W/m2 CLR
05:43 6.1 °F 0.4 °F 1029.7 in NW 35.4 mph 35.4 mph 67 % 0.0 in 0.0 W/m2 CLR
05:44 6.1 °F 0.7 °F 1029.7 in NW 38.9 mph 38.9 mph 68 % 0.0 in 0.0 W/m2 CLR
05:49 6.1 °F 0.7 °F 1029.7 in WNW 22.2 mph 22.2 mph 68 % 0.0 in 0.0 W/m2 CLR
05:54 6.1 °F 0.7 °F 1029.7 in NW 16.7 mph 16.7 mph 68 % 0.0 in 0.0 W/m2 CLR
05:59 6.1 °F 0.7 °F 1030.0 in NNW 31.5 mph 31.5 mph 68 % 0.0 in 0.0 W/m2 CLR
06:04 6.1 °F 0.7 °F 1030.0 in NW 30.6 mph 30.6 mph 68 % 0.0 in 0.0 W/m2 CLR
06:09 6.1 °F 0.7 °F 1029.7 in NW 35.2 mph 35.2 mph 68 % 0.0 in 0.0 W/m2 CLR
06:14 6.1 °F 0.7 °F 1030.0 in NW 25.9 mph 25.9 mph 68 % 0.0 in 0.0 W/m2 CLR
06:19 6.1 °F 0.7 °F 1030.0 in NW 24.1 mph 24.1 mph 68 % 0.0 in 0.0 W/m2 CLR
06:24 6.1 °F 0.8 °F 1030.0 in NW 20.4 mph 20.4 mph 69 % 0.0 in 0.0 W/m2 CLR
06:29 6.1 °F 0.8 °F 1030.0 in NW 35.2 mph 35.2 mph 69 % 0.0 in 0.0 W/m2 CLR
06:34 6.1 °F 0.8 °F 1030.0 in NW 27.8 mph 27.8 mph 69 % 0.0 in 0.0 W/m2 CLR
06:39 6.1 °F 0.8 °F 1030.0 in WNW 38.9 mph 38.9 mph 69 % 0.0 in 0.0 W/m2 CLR
06:44 6.1 °F 0.8 °F 1030.0 in NW 25.9 mph 25.9 mph 69 % 0.0 in 0.0 W/m2 CLR
06:49 6.1 °F 0.8 °F 1029.7 in WNW 38.6 mph 38.6 mph 69 % 0.0 in 0.0 W/m2 CLR
06:54 6.1 °F 0.8 °F 1030.0 in NW 35.2 mph 35.2 mph 69 % 0.0 in 0.0 W/m2 CLR
06:59 6.1 °F 0.8 °F 1030.0 in NW 24.1 mph 24.1 mph 69 % 0.0 in 0.0 W/m2 CLR
07:04 6.1 °F 0.8 °F 1030.0 in WNW 27.8 mph 27.8 mph 69 % 0.0 in 0.0 W/m2 CLR
07:09 6.1 °F 0.8 °F 1030.0 in NW 20.4 mph 20.4 mph 69 % 0.0 in 0.0 W/m2 CLR
07:14 6.1 °F 0.8 °F 1030.0 in West 16.7 mph 16.7 mph 69 % 0.0 in 0.0 W/m2 CLR
07:19 6.1 °F 0.8 °F 1030.4 in NW 29.6 mph 29.6 mph 69 % 0.0 in 0.0 W/m2 CLR
07:24 6.1 °F 1.1 °F 1030.4 in NW 33.3 mph 33.3 mph 70 % 0.0 in 0.0 W/m2 CLR
07:29 6.1 °F 1.1 °F 1030.4 in NW 33.8 mph 33.8 mph 70 % 0.0 in 0.0 W/m2 CLR
07:34 6.1 °F 1.1 °F 1030.4 in NW 25.7 mph 25.7 mph 70 % 0.0 in 0.0 W/m2 CLR
07:44 6.1 °F 1.1 °F 1030.7 in NW 29.0 mph 29.0 mph 70 % 0.0 in 0.0 W/m2 CLR
07:49 5.6 °F 0.5 °F 1030.7 in NNW 25.9 mph 25.9 mph 70 % 0.0 in 0.0 W/m2 OVC
07:54 6.1 °F 1.1 °F 1030.7 in NW 20.4 mph 20.4 mph 70 % 0.0 in 0.0 W/m2 OVC
07:59 6.1 °F 1.1 °F 1030.7 in NW 25.9 mph 25.9 mph 70 % 0.0 in 5.0 W/m2 OVC
08:04 6.1 °F 1.1 °F 1031.0 in NW 29.6 mph 29.6 mph 70 % 0.0 in 7.0 W/m2 OVC
08:09 5.6 °F 0.7 °F 1031.0 in NW 24.1 mph 24.1 mph 71 % 0.0 in 9.0 W/m2 BKN
08:14 5.6 °F 0.5 °F 1031.0 in WNW 22.2 mph 22.2 mph 70 % 0.0 in 11.0 W/m2 BKN
08:19 5.6 °F 0.7 °F 1031.4 in NW 20.9 mph 20.9 mph 71 % 0.0 in 12.0 W/m2 BKN
08:24 5.6 °F 0.7 °F 1031.4 in NNW 24.1 mph 24.1 mph 71 % 0.0 in 16.0 W/m2 BKN
08:29 5.6 °F 0.7 °F 1031.4 in NNW 24.1 mph 24.1 mph 71 % 0.0 in 19.0 W/m2 BKN
08:34 6.1 °F 1.1 °F 1031.4 in NNW 27.8 mph 27.8 mph 70 % 0.0 in 26.0 W/m2 BKN
08:39 6.1 °F 1.1 °F 1031.7 in NW 20.9 mph 20.9 mph 70 % 0.0 in 39.0 W/m2 BKN
08:44 6.1 °F 1.1 °F 1031.7 in WNW 20.4 mph 20.4 mph 70 % 0.0 in 47.0 W/m2 SCT
08:49 6.1 °F 1.1 °F 1032.1 in WNW 20.4 mph 20.4 mph 70 % 0.0 in 56.0 W/m2 SCT
08:54 6.1 °F 1.1 °F 1032.1 in NW 18.5 mph 18.5 mph 70 % 0.0 in 72.0 W/m2 FEW
08:59 6.1 °F 0.8 °F 1031.7 in NNW 24.1 mph 24.1 mph 69 % 0.0 in 84.0 W/m2 FEW
09:04 6.7 °F 1.4 °F 1032.1 in WNW 29.0 mph 29.0 mph 69 % 0.0 in 90.0 W/m2 FEW
09:09 6.7 °F 1.4 °F 1032.1 in NNW 27.8 mph 27.8 mph 69 % 0.0 in 113.0 W/m2 CLR
09:14 6.7 °F 1.2 °F 1032.1 in NW 22.2 mph 22.2 mph 68 % 0.0 in 125.0 W/m2 CLR
09:19 6.7 °F 1.2 °F 1032.4 in NW 20.4 mph 20.4 mph 68 % 0.0 in 128.0 W/m2 CLR
09:24 6.7 °F 0.9 °F 1032.1 in NNW 30.6 mph 30.6 mph 67 % 0.0 in 148.0 W/m2 CLR
09:29 7.2 °F 1.5 °F 1032.4 in NW 27.8 mph 27.8 mph 67 % 0.0 in 153.0 W/m2 CLR
09:34 7.2 °F 1.3 °F 1032.4 in NW 25.9 mph 25.9 mph 66 % 0.0 in 141.0 W/m2 CLR
09:39 7.2 °F 1.3 °F 1032.4 in NNW 27.8 mph 27.8 mph 66 % 0.0 in 141.0 W/m2 CLR
09:44 7.8 °F 1.6 °F 1032.7 in NW 31.5 mph 31.5 mph 65 % 0.0 in 151.0 W/m2 CLR
09:49 7.8 °F 1.6 °F 1032.7 in NNW 37.0 mph 37.0 mph 65 % 0.0 in 199.0 W/m2 CLR
09:54 7.8 °F 1.6 °F 1032.7 in NNW 33.3 mph 33.3 mph 65 % 0.0 in 221.0 W/m2 CLR
09:59 8.3 °F 2.1 °F 1032.7 in North 33.3 mph 33.3 mph 65 % 0.0 in 251.0 W/m2 CLR
10:04 8.3 °F 1.9 °F 1032.7 in NNW 31.5 mph 31.5 mph 64 % 0.0 in 265.0 W/m2 CLR
10:09 8.3 °F 1.9 °F 1032.4 in NW 20.4 mph 20.4 mph 64 % 0.0 in 276.0 W/m2 CLR
10:14 8.3 °F 1.7 °F 1032.7 in NNW 40.7 mph 40.7 mph 63 % 0.0 in 288.0 W/m2 CLR
10:19 8.3 °F 1.7 °F 1032.7 in NNW 38.6 mph 38.6 mph 63 % 0.0 in 297.0 W/m2 CLR
10:24 8.3 °F 1.7 °F 1032.7 in NNW 31.5 mph 31.5 mph 63 % 0.0 in 308.0 W/m2 CLR
10:25 8.3 °F 1.7 °F 1032.7 in NNW 31.5 mph 31.5 mph 63 % 0.0 in 308.0 W/m2 CLR
10:30 8.9 °F 2.2 °F 1032.7 in North 35.2 mph 35.2 mph 63 % 0.0 in 318.0 W/m2 CLR
10:35 8.9 °F 2.2 °F 1032.7 in NNW 31.5 mph 31.5 mph 63 % 0.0 in 329.0 W/m2 CLR
10:40 8.9 °F 2.0 °F 1032.7 in NW 20.4 mph 20.4 mph 62 % 0.0 in 338.0 W/m2 CLR
10:45 8.9 °F 1.8 °F 1032.7 in NNW 31.5 mph 31.5 mph 61 % 0.0 in 350.0 W/m2 CLR
10:50 9.4 °F 2.3 °F 1032.7 in North 24.1 mph 24.1 mph 61 % 0.0 in 362.0 W/m2 CLR
10:55 9.4 °F 2.1 °F 1032.7 in NW 29.6 mph 29.6 mph 60 % 0.0 in 369.0 W/m2 CLR
11:00 9.4 °F 2.1 °F 1032.7 in NNW 25.9 mph 25.9 mph 60 % 0.0 in 378.0 W/m2 CLR
11:05 10.0 °F 2.3 °F 1033.1 in North 29.6 mph 29.6 mph 59 % 0.0 in 401.0 W/m2 CLR
11:10 10.0 °F 2.6 °F 1033.1 in WNW 31.5 mph 31.5 mph 60 % 0.0 in 397.0 W/m2 CLR
11:15 10.0 °F 2.6 °F 1033.1 in North 27.8 mph 27.8 mph 60 % 0.0 in 406.0 W/m2 CLR
11:20 10.0 °F 2.6 °F 1033.1 in NNW 22.5 mph 22.5 mph 60 % 0.0 in 429.0 W/m2 CLR
11:25 10.0 °F 2.3 °F 1033.4 in North 35.2 mph 35.2 mph 59 % 0.0 in 432.0 W/m2 CLR
11:30 10.6 °F 2.6 °F 1033.4 in NNW 41.8 mph 41.8 mph 58 % 0.0 in 469.0 W/m2 CLR
11:35 10.0 °F 2.1 °F 1033.4 in North 37.0 mph 37.0 mph 58 % 0.0 in 489.0 W/m2 CLR
11:40 10.6 °F 2.6 °F 1033.4 in North 33.3 mph 33.3 mph 58 % 0.0 in 130.0 W/m2 CLR
11:45 10.6 °F 2.6 °F 1033.1 in North 33.3 mph 33.3 mph 58 % 0.0 in 508.0 W/m2 CLR
11:50 10.6 °F 2.4 °F 1033.1 in NNW 30.6 mph 30.6 mph 57 % 0.0 in 497.0 W/m2 CLR
11:55 11.1 °F 2.4 °F 1033.1 in North 37.0 mph 37.0 mph 55 % 0.0 in 394.0 W/m2 CLR
12:00 11.1 °F 2.7 °F 1033.1 in NNE 27.8 mph 27.8 mph 56 % 0.0 in 555.0 W/m2 CLR
12:05 10.6 °F 1.9 °F 1033.1 in North 27.4 mph 27.4 mph 55 % 0.0 in 536.0 W/m2 CLR
12:10 10.6 °F 1.9 °F 1033.1 in North 27.8 mph 27.8 mph 55 % 0.0 in 123.0 W/m2 CLR
12:15 10.0 °F 1.4 °F 1033.1 in North 35.2 mph 35.2 mph 55 % 0.0 in 123.0 W/m2 CLR
12:20 10.6 °F 1.9 °F 1033.1 in North 35.2 mph 35.2 mph 55 % 0.0 in 111.0 W/m2 CLR
12:25 10.6 °F 1.9 °F 1033.1 in NNW 31.5 mph 31.5 mph 55 % 0.0 in 102.0 W/m2 CLR
12:30 10.0 °F 1.6 °F 1033.1 in NNW 29.0 mph 29.0 mph 56 % 0.0 in 84.0 W/m2 CLR
12:35 10.0 °F 1.4 °F 1033.1 in NNW 31.5 mph 31.5 mph 55 % 0.0 in 81.0 W/m2 CLR
12:40 10.0 °F 1.4 °F 1032.7 in NNW 25.9 mph 25.9 mph 55 % 0.0 in 84.0 W/m2 CLR
12:45 10.0 °F 1.1 °F 1032.7 in North 27.8 mph 27.8 mph 54 % 0.0 in 70.0 W/m2 FEW
12:50 10.6 °F 1.6 °F 1032.7 in NW 24.1 mph 24.1 mph 54 % 0.0 in 504.0 W/m2 CLR
12:55 11.7 °F 2.1 °F 1032.7 in NNW 25.7 mph 25.7 mph 52 % 0.0 in 522.0 W/m2 CLR
13:00 11.7 °F 1.8 °F 1032.7 in NNW 24.1 mph 24.1 mph 51 % 0.0 in 510.0 W/m2 CLR
13:05 11.7 °F 1.3 °F 1032.7 in NNW 31.5 mph 31.5 mph 49 % 0.0 in 489.0 W/m2 CLR
13:10 12.2 °F 1.8 °F 1032.7 in NW 31.5 mph 31.5 mph 49 % 0.0 in 483.0 W/m2 CLR
13:15 11.7 °F 1.6 °F 1032.7 in North 37.0 mph 37.0 mph 50 % 0.0 in 475.0 W/m2 CLR
13:20 11.7 °F 1.6 °F 1032.7 in North 24.1 mph 24.1 mph 50 % 0.0 in 480.0 W/m2 CLR
13:25 11.7 °F 1.3 °F 1032.7 in North 33.3 mph 33.3 mph 49 % 0.0 in 462.0 W/m2 CLR
13:30 11.7 °F 1.0 °F 1032.4 in NNW 38.9 mph 38.9 mph 48 % 0.0 in 454.0 W/m2 CLR
13:35 11.7 °F 1.0 °F 1032.4 in NNW 27.8 mph 27.8 mph 48 % 0.0 in 454.0 W/m2 CLR
13:40 11.7 °F 1.0 °F 1032.4 in North 25.9 mph 25.9 mph 48 % 0.0 in 475.0 W/m2 CLR
13:50 12.2 °F 1.2 °F 1032.1 in NW 29.0 mph 29.0 mph 47 % 0.0 in 478.0 W/m2 CLR
13:55 12.2 °F 1.5 °F 1032.1 in NNW 27.8 mph 27.8 mph 48 % 0.0 in 520.0 W/m2 CLR
14:00 12.8 °F 1.7 °F 1032.1 in NW 33.3 mph 33.3 mph 47 % 0.0 in 466.0 W/m2 CLR
14:05 12.8 °F 1.7 °F 1032.1 in NW 29.6 mph 29.6 mph 47 % 0.0 in 455.0 W/m2 CLR
14:10 12.8 °F 2.1 °F 1032.1 in NW 18.5 mph 18.5 mph 48 % 0.0 in 450.0 W/m2 CLR
14:15 12.8 °F 1.7 °F 1032.4 in NW 35.2 mph 35.2 mph 47 % 0.0 in 417.0 W/m2 CLR
14:20 12.2 °F 1.5 °F 1032.1 in North 44.4 mph 44.4 mph 48 % 0.0 in 424.0 W/m2 CLR
14:25 12.2 °F 1.5 °F 1032.4 in North 33.3 mph 33.3 mph 48 % 0.0 in 406.0 W/m2 CLR
14:30 12.2 °F 1.2 °F 1032.1 in NW 31.5 mph 31.5 mph 47 % 0.0 in 388.0 W/m2 CLR
14:35 12.8 °F 1.7 °F 1032.1 in NNW 31.5 mph 31.5 mph 47 % 0.0 in 394.0 W/m2 CLR
14:41 12.8 °F 1.7 °F 1032.1 in NNW 30.6 mph 30.6 mph 47 % 0.0 in 383.0 W/m2 CLR
14:46 12.8 °F 1.7 °F 1032.1 in NW 27.8 mph 27.8 mph 47 % 0.0 in 380.0 W/m2 CLR
14:51 12.8 °F 1.7 °F 1032.1 in North 27.8 mph 27.8 mph 47 % 0.0 in 355.0 W/m2 CLR
14:56 12.2 °F 1.2 °F 1032.1 in NW 31.5 mph 31.5 mph 47 % 0.0 in 346.0 W/m2 CLR
15:01 12.2 °F 1.5 °F 1032.1 in NW 37.0 mph 37.0 mph 48 % 0.0 in 334.0 W/m2 CLR
15:06 12.2 °F 1.5 °F 1032.1 in NW 33.3 mph 33.3 mph 48 % 0.0 in 322.0 W/m2 CLR
15:11 12.2 °F 1.5 °F 1032.1 in NNW 27.8 mph 27.8 mph 48 % 0.0 in 311.0 W/m2 CLR
15:16 12.2 °F 1.2 °F 1032.1 in NNW 33.3 mph 33.3 mph 47 % 0.0 in 302.0 W/m2 CLR
15:21 12.2 °F 1.2 °F 1031.7 in NNW 42.6 mph 42.6 mph 47 % 0.0 in 294.0 W/m2 CLR
15:26 11.7 °F 1.0 °F 1032.1 in NW 27.8 mph 27.8 mph 48 % 0.0 in 279.0 W/m2 CLR
15:31 12.2 °F 1.5 °F 1032.1 in North 33.3 mph 33.3 mph 48 % 0.0 in 267.0 W/m2 CLR
15:36 11.7 °F 1.3 °F 1032.1 in NW 20.4 mph 20.4 mph 49 % 0.0 in 257.0 W/m2 CLR
15:41 12.2 °F 1.8 °F 1032.1 in North 31.5 mph 31.5 mph 49 % 0.0 in 250.0 W/m2 CLR
15:46 11.7 °F 1.3 °F 1032.1 in NNW 29.6 mph 29.6 mph 49 % 0.0 in 234.0 W/m2 CLR
15:51 11.7 °F 1.0 °F 1032.1 in North 37.0 mph 37.0 mph 48 % 0.0 in 216.0 W/m2 CLR
15:56 11.7 °F 1.3 °F 1032.4 in North 25.9 mph 25.9 mph 49 % 0.0 in 209.0 W/m2 CLR
16:01 11.1 °F 1.1 °F 1032.4 in North 33.3 mph 33.3 mph 50 % 0.0 in 211.0 W/m2 CLR
16:02 11.1 °F 1.1 °F 1032.4 in North 33.3 mph 33.3 mph 50 % 0.0 in 207.0 W/m2 CLR
16:07 11.1 °F 1.1 °F 1032.7 in North 31.5 mph 31.5 mph 50 % 0.0 in 193.0 W/m2 CLR
16:17 11.1 °F 1.3 °F 1032.4 in NNW 35.2 mph 35.2 mph 51 % 0.0 in 144.0 W/m2 CLR
16:22 11.1 °F 1.3 °F 1032.7 in NNW 29.6 mph 29.6 mph 51 % 0.0 in 134.0 W/m2 CLR
16:24 11.1 °F 1.3 °F 1032.7 in NNW 24.1 mph 24.1 mph 51 % 0.0 in 130.0 W/m2 CLR
16:29 11.1 °F 1.3 °F 1032.7 in North 27.8 mph 27.8 mph 51 % 0.0 in 118.0 W/m2 CLR
16:39 10.6 °F 1.1 °F 1032.4 in North 40.7 mph 40.7 mph 52 % 0.0 in 83.0 W/m2 FEW
16:44 10.6 °F 1.1 °F 1032.4 in North 29.0 mph 29.0 mph 52 % 0.0 in 62.0 W/m2 FEW
16:49 10.6 °F 1.1 °F 1032.4 in NNW 37.0 mph 37.0 mph 52 % 0.0 in 56.0 W/m2 SCT
16:54 10.6 °F 1.4 °F 1032.7 in NW 27.8 mph 27.8 mph 53 % 0.0 in 42.0 W/m2 BKN
16:59 10.0 °F 0.8 °F 1032.7 in NNW 24.1 mph 24.1 mph 53 % 0.0 in 35.0 W/m2 BKN
17:04 10.0 °F 0.8 °F 1032.7 in NW 20.4 mph 20.4 mph 53 % 0.0 in 23.0 W/m2 BKN
17:09 10.0 °F 1.1 °F 1032.7 in NNW 25.9 mph 25.9 mph 54 % 0.0 in 16.0 W/m2 BKN
17:14 9.4 °F 0.8 °F 1032.7 in NNW 27.8 mph 27.8 mph 55 % 0.0 in 12.0 W/m2 BKN
17:19 9.4 °F 1.1 °F 1032.7 in NNW 24.1 mph 24.1 mph 56 % 0.0 in 11.0 W/m2 BKN
17:24 9.4 °F 1.1 °F 1032.7 in NNW 18.5 mph 19.6 mph 56 % 0.0 in 9.0 W/m2 BKN
17:29 9.4 °F 1.3 °F 1032.7 in NNW 29.6 mph 29.6 mph 57 % 0.0 in 7.0 W/m2 BKN
17:34 9.4 °F 1.3 °F 1032.7 in NNW 14.8 mph 14.8 mph 57 % 0.0 in 5.0 W/m2 OVC
17:39 8.9 °F 0.8 °F 1032.7 in NW 18.5 mph 18.5 mph 57 % 0.0 in 0.0 W/m2 OVC
17:45 8.9 °F 1.1 °F 1032.7 in NNW 16.7 mph 16.7 mph 58 % 0.0 in 0.0 W/m2 CLR
17:50 8.9 °F 1.1 °F 1032.7 in NW 18.5 mph 18.5 mph 58 % 0.0 in 0.0 W/m2 CLR
17:55 8.9 °F 1.3 °F 1032.4 in NNW 18.5 mph 18.5 mph 59 % 0.0 in 0.0 W/m2 CLR
18:00 8.9 °F 1.6 °F 1032.4 in NNW 27.8 mph 27.8 mph 60 % 0.0 in 0.0 W/m2 CLR
18:05 8.9 °F 1.6 °F 1032.7 in NW 14.8 mph 14.8 mph 60 % 0.0 in 0.0 W/m2 CLR
18:10 8.9 °F 1.6 °F 1032.7 in WNW 16.7 mph 16.7 mph 60 % 0.0 in 0.0 W/m2 CLR
18:15 8.3 °F 1.2 °F 1032.7 in WNW 11.3 mph 11.3 mph 61 % 0.0 in 0.0 W/m2 CLR
18:20 8.3 °F 1.2 °F 1032.7 in NW 16.1 mph 16.1 mph 61 % 0.0 in 0.0 W/m2 CLR
18:25 8.3 °F 1.2 °F 1032.4 in NNW 25.7 mph 25.7 mph 61 % 0.0 in 0.0 W/m2 CLR
18:30 7.8 °F 0.7 °F 1032.4 in NW 22.2 mph 22.2 mph 61 % 0.0 in 0.0 W/m2 CLR
18:35 7.8 °F 0.7 °F 1032.7 in WNW 16.7 mph 16.7 mph 61 % 0.0 in 0.0 W/m2 CLR
18:40 8.3 °F 1.4 °F 1032.7 in WNW 14.8 mph 14.8 mph 62 % 0.0 in 0.0 W/m2 CLR
18:45 8.3 °F 1.2 °F 1032.7 in NNW 25.7 mph 25.7 mph 61 % 0.0 in 0.0 W/m2 CLR
18:47 7.8 °F 0.7 °F 1032.7 in NW 20.4 mph 20.4 mph 61 % 0.0 in 0.0 W/m2 CLR
18:52 7.8 °F 0.7 °F 1032.7 in NW 18.5 mph 18.5 mph 61 % 0.0 in 0.0 W/m2 CLR
18:57 7.8 °F 0.9 °F 1032.7 in NW 18.5 mph 18.5 mph 62 % 0.0 in 0.0 W/m2 CLR
19:01 7.8 °F 1.2 °F 1032.7 in NW 13.0 mph 13.0 mph 63 % 0.0 in 0.0 W/m2 CLR
19:06 7.8 °F 1.2 °F 1033.1 in WNW 14.8 mph 14.8 mph 63 % 0.0 in 0.0 W/m2 CLR
19:11 7.8 °F 1.2 °F 1033.1 in WNW 13.0 mph 13.0 mph 63 % 0.0 in 0.0 W/m2 CLR
19:17 7.2 °F 0.7 °F 1032.7 in WNW 6.4 mph 6.4 mph 63 % 0.0 in 0.0 W/m2 CLR
19:22 6.7 °F 0.1 °F 1033.1 in WNW 11.3 mph 11.3 mph 63 % 0.0 in 0.0 W/m2 CLR
19:27 6.7 °F 0.3 °F 1033.1 in WNW 18.5 mph 18.5 mph 64 % 0.0 in 0.0 W/m2 CLR
19:32 6.7 °F 0.6 °F 1033.1 in NW 16.7 mph 16.7 mph 65 % 0.0 in 0.0 W/m2 CLR
19:37 6.7 °F 0.3 °F 1033.1 in NW 20.4 mph 20.4 mph 64 % 0.0 in 0.0 W/m2 CLR
19:42 6.7 °F 0.3 °F 1033.1 in WNW 14.8 mph 14.8 mph 64 % 0.0 in 0.0 W/m2 CLR
19:47 7.2 °F 0.7 °F 1033.1 in WSW 7.4 mph 7.4 mph 63 % 0.0 in 0.0 W/m2 CLR
19:52 7.2 °F 1.1 °F 1033.1 in WSW 7.4 mph 7.4 mph 65 % 0.0 in 0.0 W/m2 CLR
19:57 7.2 °F 1.1 °F 1033.1 in West 13.0 mph 13.0 mph 65 % 0.0 in 0.0 W/m2 CLR
20:02 7.2 °F 1.3 °F 1033.1 in West 11.1 mph 11.1 mph 66 % 0.0 in 0.0 W/m2 CLR
20:07 7.2 °F 1.5 °F 1033.1 in WSW 11.3 mph 11.3 mph 67 % 0.0 in 0.0 W/m2 CLR
20:12 7.2 °F 1.5 °F 1033.1 in West 11.1 mph 11.1 mph 67 % 0.0 in 0.0 W/m2 CLR
20:17 6.7 °F 1.2 °F 1033.1 in West 11.1 mph 11.1 mph 68 % 0.0 in 0.0 W/m2 CLR
20:22 6.1 °F 0.7 °F 1033.1 in West 11.1 mph 11.1 mph 68 % 0.0 in 0.0 W/m2 CLR
20:27 6.1 °F 0.7 °F 1033.1 in West 13.0 mph 13.0 mph 68 % 0.0 in 0.0 W/m2 CLR
20:32 6.1 °F 0.8 °F 1033.1 in WSW 13.0 mph 13.0 mph 69 % 0.0 in 0.0 W/m2 CLR
20:42 5.0 °F -0.2 °F 1032.7 in NW 13.0 mph 13.0 mph 69 % 0.0 in 0.0 W/m2 CLR
20:47 4.4 °F -0.8 °F 1032.7 in WNW 14.8 mph 14.8 mph 69 % 0.0 in 0.0 W/m2 CLR
20:57 4.4 °F -0.8 °F 1033.1 in NW 16.7 mph 16.7 mph 69 % 0.0 in 0.0 W/m2 CLR
21:02 4.4 °F -0.9 °F 1033.1 in WNW 20.4 mph 20.4 mph 68 % 0.0 in 0.0 W/m2 CLR
21:07 3.9 °F -1.7 °F 1033.1 in West 18.5 mph 18.5 mph 67 % 0.0 in 0.0 W/m2 CLR
21:12 3.3 °F -2.2 °F 1033.1 in WSW 7.4 mph 7.4 mph 67 % 0.0 in 0.0 W/m2 CLR
21:17 3.9 °F -1.3 °F 1033.4 in WSW 7.4 mph 7.4 mph 69 % 0.0 in 0.0 W/m2 CLR
21:22 3.9 °F -1.1 °F 1033.4 in West 7.4 mph 7.4 mph 70 % 0.0 in 0.0 W/m2 CLR
21:27 3.9 °F -1.1 °F 1033.4 in WNW 9.3 mph 9.3 mph 70 % 0.0 in 0.0 W/m2 CLR
21:32 3.3 °F -1.4 °F 1033.4 in West 11.1 mph 11.1 mph 71 % 0.0 in 0.0 W/m2 CLR
21:37 3.3 °F -1.4 °F 1033.4 in West 9.3 mph 9.3 mph 71 % 0.0 in 0.0 W/m2 CLR
21:38 3.3 °F -1.4 °F 1033.4 in West 11.1 mph 11.1 mph 71 % 0.0 in 0.0 W/m2 CLR
21:43 3.3 °F -1.4 °F 1033.4 in WSW 11.3 mph 11.3 mph 71 % 0.0 in 0.0 W/m2 CLR
21:48 3.3 °F -1.4 °F 1033.4 in WSW 13.0 mph 13.0 mph 71 % 0.0 in 0.0 W/m2 CLR
21:53 4.4 °F -0.2 °F 1033.4 in West 16.7 mph 16.7 mph 72 % 0.0 in 0.0 W/m2 CLR
21:54 5.0 °F 0.2 °F 1033.4 in WSW 13.0 mph 13.0 mph 71 % 0.0 in 0.0 W/m2 CLR
21:59 5.0 °F 0.2 °F 1033.7 in West 13.0 mph 13.0 mph 71 % 0.0 in 0.0 W/m2 CLR
22:04 5.0 °F 0.2 °F 1033.7 in WSW 13.0 mph 13.0 mph 71 % 0.0 in 0.0 W/m2 CLR
22:09 5.6 °F 0.7 °F 1033.7 in West 16.7 mph 16.7 mph 71 % 0.0 in 0.0 W/m2 CLR
22:14 5.0 °F 0.2 °F 1033.7 in West 20.4 mph 20.4 mph 71 % 0.0 in 0.0 W/m2 CLR
22:19 4.4 °F -0.3 °F 1033.7 in West 14.8 mph 14.8 mph 71 % 0.0 in 0.0 W/m2 CLR
22:24 4.4 °F -0.3 °F 1033.7 in West 14.8 mph 14.8 mph 71 % 0.0 in 0.0 W/m2 CLR
22:34 3.9 °F -0.9 °F 1033.7 in WNW 13.0 mph 13.0 mph 71 % 0.0 in 0.0 W/m2 CLR
22:39 3.9 °F -0.9 °F 1033.7 in West 14.8 mph 14.8 mph 71 % 0.0 in 0.0 W/m2 CLR
22:44 3.3 °F -1.4 °F 1034.1 in West 11.1 mph 11.1 mph 71 % 0.0 in 0.0 W/m2 CLR
22:49 3.3 °F -1.4 °F 1034.1 in West 13.0 mph 13.0 mph 71 % 0.0 in 0.0 W/m2 CLR
22:54 2.8 °F -1.8 °F 1033.7 in West 18.5 mph 18.5 mph 72 % 0.0 in 0.0 W/m2 CLR
22:59 3.3 °F -1.2 °F 1034.1 in West 16.7 mph 16.7 mph 72 % 0.0 in 0.0 W/m2 CLR
23:04 4.4 °F -0.2 °F 1034.1 in West 16.7 mph 16.7 mph 72 % 0.0 in 0.0 W/m2 CLR
23:09 3.9 °F -0.9 °F 1034.1 in West 16.7 mph 16.7 mph 71 % 0.0 in 0.0 W/m2 CLR
23:15 3.9 °F -0.9 °F 1034.1 in West 9.3 mph 9.3 mph 71 % 0.0 in 0.0 W/m2 CLR
23:20 3.3 °F -1.2 °F 1034.1 in West 13.0 mph 13.0 mph 72 % 0.0 in 0.0 W/m2 CLR
23:30 2.2 °F -2.1 °F 1034.1 in West 13.0 mph 13.0 mph 73 % 0.0 in 0.0 W/m2 CLR
23:35 1.7 °F -2.7 °F 1034.1 in West 11.1 mph 11.1 mph 73 % 0.0 in 0.0 W/m2 CLR
23:40 1.7 °F -2.7 °F 1034.1 in West 11.3 mph 11.3 mph 73 % 0.0 in 0.0 W/m2 CLR
23:45 1.1 °F -3.2 °F 1034.1 in WSW 9.3 mph 9.3 mph 73 % 0.0 in 0.0 W/m2 CLR
23:50 1.1 °F -3.2 °F 1034.1 in West 7.4 mph 7.4 mph 73 % 0.0 in 0.0 W/m2 CLR
23:55 1.1 °F -3.0 °F 1034.1 in WSW 5.6 mph 5.6 mph 74 % 0.0 in 0.0 W/m2 CLR
Lo Temps de Massalio
Compliments of Weather Underground - 1.25 mb